1991 DEBRA (1991053S21040)


On this page: IBTrACS data - Map and Plots - Positions - Intensities - Original source data

Summary

Start Feb 22
End Mar 4
Basin SI
LMI 90 kt
Sources jtwc_sh
reunion
neumann
In WMO? Yes
Previous storm 1991 CYNTHIA (SI)
Previous in basin 1991 CYNTHIA (SI)
Concurrent storms 1991 CHRIS (SI)
1991 DAPHNE (SP)
1991 DEBRA (SI)
1991 KELVIN (SP)
1991 ELMA (SI)
1991 SHARON (WP)
1991 HSK1691 (SP)
Next in basin 1991 ELMA (SI)
Next storm 1991 KELVIN (SP)

top of page IBTrACS Data: File Access

top of page HURSAT Data: File Access

Image of storm

top of page Plots:

Map of storm track will not appear if FTP is down
Time series of cyclone Maximum Sustained Wind will not appear if FTP is down
Time series of cyclone Minimum Central Pressure will not appear if FTP is down

top of page Track Data:Position

jtwc_sh reunion neumann
Date Lat Lon Lat Lon Lat Lon
1991-02-22 06:00:00 -21.2 39.9
1991-02-22 12:00:00 -22.3 39.7
1991-02-22 18:00:00 -23.2 39.1
1991-02-23 00:00:00 -23.7 38.5
1991-02-23 06:00:00 -24.0 37.4 -24.0 38.0 -24.0 37.4
1991-02-23 12:00:00 -24.4 37.1 -24.3 37.5 -24.4 37.1
1991-02-23 18:00:00 -24.8 36.7 -24.7 36.9 -24.8 36.7
1991-02-24 00:00:00 -25.0 36.2 -25.1 36.2 -25.0 36.2
1991-02-24 06:00:00 -25.1 35.7 -25.2 35.9 -25.1 35.7
1991-02-24 12:00:00 -25.2 35.5 -25.2 35.6 -25.2 35.5
1991-02-24 18:00:00 -25.3 35.5 -25.5 35.7 -25.3 35.5
1991-02-25 00:00:00 -25.5 35.6 -25.7 35.9 -25.5 35.6
1991-02-25 06:00:00 -25.6 35.9 -25.8 36.1 -25.6 35.9
1991-02-25 12:00:00 -25.8 36.3 -26.0 36.4 -25.8 36.3
1991-02-25 18:00:00 -25.8 36.8 -26.0 36.7 -25.8 36.8
1991-02-26 00:00:00 -25.7 37.3 -25.9 37.2 -25.7 37.3
1991-02-26 06:00:00 -25.5 37.8 -25.6 37.8 -25.5 37.8
1991-02-26 12:00:00 -25.2 38.2 -25.2 38.2 -25.2 38.2
1991-02-26 18:00:00 -24.8 38.6 -24.7 38.7 -24.8 38.6
1991-02-27 00:00:00 -24.4 38.8 -24.0 38.9 -24.4 38.8
1991-02-27 06:00:00 -24.2 38.8 -23.6 39.1 -24.2 38.8
1991-02-27 12:00:00 -24.2 38.6 -24.0 38.7 -24.2 38.6
1991-02-27 18:00:00 -24.4 38.4 -24.3 38.5 -24.4 38.4
1991-02-28 00:00:00 -24.7 38.4 -24.6 38.3 -24.7 38.4
1991-02-28 06:00:00 -25.1 38.4 -25.1 38.2 -25.1 38.4
jtwc_sh reunion neumann
1991-02-28 12:00:00 -25.4 38.4 -25.4 38.3 -25.4 38.4
1991-02-28 18:00:00 -25.7 38.4 -25.7 38.5 -25.7 38.4
1991-03-01 00:00:00 -26.3 38.4 -25.9 38.6 -26.3 38.4
1991-03-01 06:00:00 -26.3 38.4 -26.3 38.7 -26.3 38.4
1991-03-01 12:00:00 -26.7 38.5 -26.5 38.9 -26.7 38.5
1991-03-01 18:00:00 -27.1 38.4 -26.9 38.9 -27.1 38.4
1991-03-02 00:00:00 -27.5 38.2 -27.1 38.9 -27.5 38.2
1991-03-02 06:00:00 -27.9 38.0 -27.6 38.5 -27.9 38.0
1991-03-02 12:00:00 -28.4 37.8 -28.5 37.9 -28.4 37.8
1991-03-02 18:00:00 -29.6 37.5 -29.9 37.5 -29.6 37.5
1991-03-03 00:00:00 -31.2 37.4 -31.2 37.5 -31.2 37.4
1991-03-03 06:00:00 -33.2 37.7 -33.2 37.9 -33.2 37.7
1991-03-03 12:00:00 -35.6 38.8 -35.7 38.6 -35.6 38.8
1991-03-03 18:00:00 -38.3 40.4 -38.5 40.5 -38.3 40.4
1991-03-04 00:00:00 -40.8 43.1 -40.8 43.7 -40.8 43.1
1991-03-04 06:00:00 -42.9 46.9 -42.9 46.9

top of pageTrack Data:Intensity

jtwc_sh reunion neumann
Date Wind Pres Wind Pres Wind Pres
1991-02-22 06:00:00 24. 1005.
1991-02-22 12:00:00 24. 1005.
1991-02-22 18:00:00 24. 1004.
1991-02-23 00:00:00 24. 1004.
1991-02-23 06:00:00 20. 24. 1004. 20.
1991-02-23 12:00:00 20. 25. 1002. 20.
1991-02-23 18:00:00 25. 25. 1002. 25.
1991-02-24 00:00:00 30. 25. 1002. 30.
1991-02-24 06:00:00 40. 27. 1000. 40.
1991-02-24 12:00:00 45. 27. 1000. 45.
1991-02-24 18:00:00 55. 30. 998. 55.
1991-02-25 00:00:00 60. 30. 998. 60.
1991-02-25 06:00:00 65. 30. 997. 65.
1991-02-25 12:00:00 75. 36. 991. 75.
1991-02-25 18:00:00 80. 43. 985. 80.
1991-02-26 00:00:00 80. 50. 978. 80.
1991-02-26 06:00:00 90. 56. 972. 90.
1991-02-26 12:00:00 90. 62. 966. 90.
1991-02-26 18:00:00 90. 62. 966. 90.
1991-02-27 00:00:00 90. 62. 966. 90.
1991-02-27 06:00:00 85. 56. 972. 85.
1991-02-27 12:00:00 80. 52. 976. 80.
1991-02-27 18:00:00 75. 52. 976. 75.
1991-02-28 00:00:00 70. 47. 981. 70.
1991-02-28 06:00:00 65. 47. 981. 65.
jtwc_sh reunion neumann
1991-02-28 12:00:00 60. 44. 984. 60.
1991-02-28 18:00:00 55. 36. 991. 55.
1991-03-01 00:00:00 55. 36. 991. 55.
1991-03-01 06:00:00 55. 36. 991. 55.
1991-03-01 12:00:00 55. 36. 991. 55.
1991-03-01 18:00:00 55. 36. 991. 55.
1991-03-02 00:00:00 55. 36. 991. 55.
1991-03-02 06:00:00 50. 36. 991. 50.
1991-03-02 12:00:00 50. 44. 984. 50.
1991-03-02 18:00:00 50. 44. 984. 50.
1991-03-03 00:00:00 50. 44. 984. 50.
1991-03-03 06:00:00 50. 44. 984. 50.
1991-03-03 12:00:00 50. 50.
1991-03-03 18:00:00 50. 50.
1991-03-04 00:00:00 50. 50.
1991-03-04 06:00:00 50. 50.

top of page Links to source data

Source Source file Format
jtwc_sh bsh121991.txt ATCF
reunion WMO-Best-Tracks.txt:Line=15203:debra WMO (old format)
neumann tracks.sh:Storm=911:DEBRA:BSH121991:JTWC HURDAT